Time;durP1;ratioP1;P1;durP2;ratioP2;P2;SDS_P1;SDS_P2;PMS_P1;PMS_P2;Temp;Humidity;BMP_temperature;BMP_pressure;BME280_temperature;BME280_humidity;BME280_pressure;Samples;Min_cycle;Max_cycle;Signal;HPM_P1;HPM_P2
2022/07/16 00:02:41;;;;;;;7.85;2.03;;;12.50;99.90;;;12.70;100.00;99051.97;5001168;28;119729;-73
2022/07/16 00:05:11;;;;;;;3.00;1.45;;;12.50;99.90;;;12.67;100.00;99050.72;5000716;28;119254;-73
2022/07/16 00:07:39;;;;;;;5.55;2.00;;;12.40;99.90;;;12.63;100.00;99049.81;5000813;28;130010;-72
2022/07/16 00:10:10;;;;;;;6.03;2.03;;;12.40;99.90;;;12.59;100.00;99057.84;5000441;28;129976;-74
2022/07/16 00:12:38;;;;;;;7.50;2.08;;;12.40;99.90;;;12.58;100.00;99058.97;4969421;28;118451;-73
2022/07/16 00:15:08;;;;;;;6.28;1.88;;;12.40;99.90;;;12.53;100.00;99051.03;5002520;28;119183;-74
2022/07/16 00:17:37;;;;;;;4.45;1.85;;;12.30;99.90;;;12.51;100.00;99056.03;4984266;28;129645;-72
2022/07/16 00:20:08;;;;;;;5.45;2.05;;;12.20;99.90;;;12.48;100.00;99056.69;5000770;28;129705;-72
2022/07/16 00:22:36;;;;;;;5.43;1.80;;;12.30;99.90;;;12.47;100.00;99055.09;5002872;28;119806;-72
2022/07/16 00:25:06;;;;;;;3.70;1.77;;;12.30;99.90;;;12.46;100.00;99060.88;4986093;28;119019;-76
2022/07/16 00:27:35;;;;;;;6.32;1.77;;;12.30;99.90;;;12.43;100.00;99062.31;4986083;28;129248;-74
2022/07/16 00:30:04;;;;;;;9.30;2.53;;;12.30;99.90;;;12.41;100.00;99059.16;5000736;28;129771;-73
2022/07/16 00:32:33;;;;;;;4.47;1.92;;;12.20;99.90;;;12.36;100.00;99067.53;5001223;28;120059;-73
2022/07/16 00:35:01;;;;;;;6.13;1.98;;;12.20;99.90;;;12.39;100.00;99066.84;4986832;28;118976;-73
2022/07/16 00:37:32;;;;;;;5.28;2.22;;;12.30;99.90;;;12.41;100.00;99070.03;5000515;28;131170;-73
2022/07/16 00:40:00;;;;;;;4.20;1.67;;;12.30;99.90;;;12.41;100.00;99070.03;5000079;28;131163;-72
2022/07/16 00:42:29;;;;;;;6.65;2.33;;;12.30;99.90;;;12.39;100.00;99061.41;4998262;28;121990;-72
2022/07/16 00:44:58;;;;;;;6.20;2.00;;;12.20;99.90;;;12.43;100.00;99072.41;5000639;28;122198;-74
2022/07/16 00:47:26;;;;;;;2.88;1.63;;;12.10;99.90;;;12.36;100.00;99067.53;5000386;28;130135;-73
2022/07/16 00:49:56;;;;;;;7.47;1.88;;;12.10;99.90;;;12.33;100.00;99068.19;4985910;28;129181;-74
2022/07/16 00:52:25;;;;;;;5.35;2.10;;;12.10;99.90;;;12.31;100.00;99081.31;5000352;28;119511;-72
2022/07/16 00:54:55;;;;;;;5.53;1.88;;;12.10;99.90;;;12.31;100.00;99075.88;5000305;28;119100;-73
2022/07/16 00:57:24;;;;;;;10.48;1.95;;;12.10;99.90;;;12.31;100.00;99081.31;5000163;28;129550;-74
2022/07/16 00:59:52;;;;;;;8.45;2.33;;;12.10;99.90;;;12.31;100.00;99070.44;5002411;28;129049;-74
2022/07/16 01:02:21;;;;;;;4.72;1.83;;;12.10;99.90;;;12.30;100.00;99074.31;5001520;28;118771;-71
2022/07/16 01:04:50;;;;;;;5.60;1.70;;;12.10;99.90;;;12.28;100.00;99071.09;5000192;28;119163;-73
2022/07/16 01:07:19;;;;;;;5.13;2.20;;;12.10;99.90;;;12.22;100.00;99065.88;4980861;28;129713;-73
2022/07/16 01:09:49;;;;;;;5.15;2.35;;;12.00;99.90;;;12.21;100.00;99071.63;4985236;28;128674;-70
2022/07/16 01:12:19;;;;;;;4.45;2.25;;;12.00;99.90;;;12.15;100.00;99067.53;4985738;28;118817;-72
2022/07/16 01:14:48;;;;;;;4.47;2.00;;;11.90;99.90;;;12.13;100.00;99059.69;4982442;28;119207;-69
2022/07/16 01:17:17;;;;;;;2.58;1.83;;;11.80;99.90;;;12.10;100.00;99060.38;4985078;28;129505;-72
2022/07/16 01:19:45;;;;;;;5.82;2.03;;;11.80;99.90;;;12.10;100.00;99065.00;4999511;28;129505;-76
2022/07/16 01:22:19;;;;;;;7.45;2.08;;;11.80;99.90;;;12.01;100.00;99067.78;4999946;28;119620;-74
2022/07/16 01:24:50;;;;;;;7.47;2.28;;;11.90;99.90;;;12.04;100.00;99067.13;4985840;28;119112;-74
2022/07/16 01:27:21;;;;;;;3.67;2.00;;;11.70;99.90;;;12.00;100.00;99060.78;4999729;28;130684;-72
2022/07/16 01:29:49;;;;;;;3.65;2.10;;;11.70;99.90;;;11.98;100.00;99073.88;4968319;28;129577;-72
2022/07/16 01:32:18;;;;;;;5.07;2.20;;;11.60;99.90;;;11.94;100.00;99072.97;4998055;28;121884;-71
2022/07/16 01:34:47;;;;;;;6.00;2.30;;;11.60;99.90;;;11.92;100.00;99061.59;4985159;28;120795;-73
2022/07/16 01:37:16;;;;;;;6.32;2.45;;;11.60;99.90;;;11.88;100.00;99056.81;4984740;28;130311;-72
2022/07/16 01:39:44;;;;;;;4.65;2.28;;;11.50;99.90;;;11.86;100.00;99058.28;4999268;28;129546;-73
2022/07/16 01:42:14;;;;;;;5.88;2.20;;;11.50;99.90;;;11.85;100.00;99064.84;4999828;28;120096;-72
2022/07/16 01:44:43;;;;;;;5.63;2.20;;;11.50;99.90;;;11.83;100.00;99067.88;4984681;28;118890;-71
2022/07/16 01:47:13;;;;;;;4.50;2.15;;;11.40;99.90;;;11.79;100.00;99069.66;4999381;28;130133;-74
2022/07/16 01:49:42;;;;;;;5.40;2.40;;;11.40;99.90;;;11.80;100.00;99084.06;4998648;28;129039;-72
2022/07/16 01:52:14;;;;;;;4.55;2.17;;;11.30;99.90;;;11.77;100.00;99080.09;4999924;28;119690;-72
2022/07/16 01:54:45;;;;;;;4.97;2.47;;;11.30;99.90;;;11.76;100.00;99078.47;4999600;28;120902;-70
2022/07/16 01:57:16;;;;;;;4.82;2.17;;;11.40;99.90;;;11.76;100.00;99081.19;5019505;28;129552;-71
2022/07/16 01:59:45;;;;;;;4.68;2.30;;;11.30;99.90;;;11.74;100.00;99080.75;5020919;28;128854;-78
2022/07/16 02:02:15;;;;;;;7.80;2.70;;;11.30;99.90;;;11.75;100.00;99082.34;5021563;28;118838;-73
2022/07/16 02:04:44;;;;;;;6.55;2.10;;;11.30;99.90;;;11.72;100.00;99087.63;5005116;28;118306;-73
2022/07/16 02:07:12;;;;;;;4.15;1.95;;;11.30;99.90;;;11.71;100.00;99086.84;5021121;28;130148;-73
2022/07/16 02:09:41;;;;;;;5.25;2.45;;;11.30;99.90;;;11.69;100.00;99083.66;5019111;28;129104;-72
2022/07/16 02:12:10;;;;;;;3.92;2.10;;;11.30;99.90;;;11.68;100.00;99085.56;5019562;28;119496;-75
2022/07/16 02:14:40;;;;;;;6.78;2.10;;;11.30;99.90;;;11.73;100.00;99084.56;5019945;28;119640;-75
2022/07/16 02:17:09;;;;;;;7.30;2.58;;;11.40;99.90;;;11.76;100.00;99092.06;5019329;28;129681;-74
2022/07/16 02:19:38;;;;;;;4.80;2.03;;;11.40;99.90;;;11.79;100.00;99105.00;5000956;28;129662;-72
2022/07/16 02:22:08;;;;;;;8.18;2.22;;;11.40;99.90;;;11.77;100.00;99085.50;5019730;28;122004;-73
2022/07/16 02:24:37;;;;;;;5.85;2.10;;;11.40;99.90;;;11.78;100.00;99092.56;5004998;28;121285;-74
2022/07/16 02:27:06;;;;;;;3.70;2.00;;;11.40;99.90;;;11.81;100.00;99097.34;5022566;28;129938;-72
2022/07/16 02:29:34;;;;;;;5.15;2.22;;;11.40;99.90;;;11.86;100.00;99099.84;5022714;28;129281;-74
2022/07/16 02:32:05;;;;;;;7.95;2.00;;;11.40;99.90;;;11.85;100.00;99103.69;5022969;28;119439;-72
2022/07/16 02:34:33;;;;;;;5.85;2.22;;;11.40;99.90;;;11.83;100.00;99100.50;5007760;28;118847;-75
2022/07/16 02:37:02;;;;;;;6.03;1.98;;;11.40;99.90;;;11.86;100.00;99099.84;5022764;28;130650;-72
2022/07/16 02:39:31;;;;;;;5.47;2.47;;;11.40;99.90;;;11.87;100.00;99093.31;5008318;28;129489;-73
2022/07/16 02:41:59;;;;;;;6.45;2.28;;;11.40;99.90;;;11.88;100.00;99103.03;5022711;28;120290;-73
2022/07/16 02:44:28;;;;;;;4.47;2.10;;;11.40;99.90;;;11.93;100.00;99098.56;5022762;28;119752;-73
2022/07/16 02:46:57;;;;;;;5.05;2.15;;;11.40;99.90;;;11.99;100.00;99102.69;5021166;28;129782;-74
2022/07/16 02:49:28;;;;;;;6.68;1.90;;;11.50;99.90;;;11.99;100.00;99105.41;5022190;28;129473;-72
2022/07/16 02:51:56;;;;;;;4.35;1.75;;;11.50;99.90;;;11.99;100.00;99108.13;5007854;28;118805;-73
2022/07/16 02:54:25;;;;;;;4.05;2.10;;;11.50;99.90;;;12.03;100.00;99098.19;5022855;28;119896;-75
2022/07/16 02:56:53;;;;;;;7.75;2.55;;;11.50;99.90;;;12.08;100.00;99099.91;5024768;28;130097;-72
2022/07/16 02:59:22;;;;;;;5.97;2.30;;;11.50;99.90;;;12.12;100.00;99096.19;5022413;28;129798;-72
2022/07/16 03:01:51;;;;;;;3.78;2.03;;;11.50;99.90;;;12.14;100.00;99101.28;5007509;28;118558;-72
2022/07/16 03:04:19;;;;;;;5.65;1.70;;;11.50;99.90;;;12.18;100.00;99100.28;5024699;28;118672;-74
2022/07/16 03:06:49;;;;;;;6.32;2.08;;;11.60;99.90;;;12.19;100.00;99101.91;5022115;28;129954;-73
2022/07/16 03:09:18;;;;;;;5.00;2.45;;;11.60;99.90;;;12.34;100.00;99107.84;5003947;28;129495;-72
2022/07/16 03:11:47;;;;;;;3.55;1.83;;;11.60;99.90;;;12.61;100.00;99105.72;5021141;28;122062;-73
2022/07/16 03:14:16;;;;;;;6.47;1.77;;;11.80;99.90;;;13.14;100.00;99106.78;5022309;28;121713;-72
2022/07/16 03:16:44;;;;;;;2.45;1.20;;;12.10;99.90;;;14.29;100.00;99113.09;5021871;28;129855;-70
2022/07/16 03:19:13;;;;;;;3.90;1.27;;;12.80;99.90;;;15.64;93.86;99116.25;5021920;28;129402;-72
2022/07/16 03:21:42;;;;;;;4.07;1.50;;;13.50;99.90;;;16.78;83.58;99119.09;5022183;28;120917;-73
2022/07/16 03:24:12;;;;;;;4.07;1.10;;;13.60;99.90;;;17.68;76.92;99123.41;5022355;28;119489;-73
2022/07/16 03:26:40;;;;;;;2.78;1.10;;;13.90;99.90;;;18.22;73.91;99125.00;5007274;28;130108;-73
2022/07/16 03:29:09;;;;;;;5.35;1.13;;;13.80;99.90;;;18.44;71.25;99125.28;5022139;28;129492;-73
2022/07/16 03:31:37;;;;;;;4.40;1.42;;;14.50;99.90;;;17.86;71.78;99129.19;5004020;28;119517;-72
2022/07/16 03:34:05;;;;;;;2.60;1.20;;;13.40;99.90;;;17.32;74.31;99133.78;5021848;28;119304;-71
2022/07/16 03:36:34;;;;;;;5.72;1.42;;;13.40;99.90;;;16.73;76.97;99135.81;4989042;28;128694;-73
2022/07/16 03:39:03;;;;;;;4.93;1.67;;;13.20;99.90;;;16.34;79.00;99136.59;5021839;28;129764;-74
2022/07/16 03:41:35;;;;;;;4.90;1.63;;;13.10;99.90;;;15.64;82.45;99138.94;5004073;28;119920;-73
2022/07/16 03:44:07;;;;;;;4.53;1.38;;;12.90;99.90;;;15.46;84.30;99152.16;5023831;28;119081;-71
2022/07/16 03:46:37;;;;;;;4.25;1.60;;;13.10;99.90;;;15.29;85.92;99149.78;5021927;28;130729;-73
2022/07/16 03:49:06;;;;;;;2.42;1.48;;;13.10;99.90;;;15.16;86.61;99145.53;5021242;28;129543;-73
2022/07/16 03:51:35;;;;;;;7.68;2.10;;;13.00;99.90;;;15.04;87.38;99152.66;5021926;28;119634;-73
2022/07/16 03:54:04;;;;;;;3.97;1.73;;;13.00;99.90;;;14.99;87.66;99152.91;5022247;28;119424;-71
2022/07/16 03:56:34;;;;;;;5.20;1.65;;;12.90;99.90;;;14.66;89.01;99151.25;5008786;28;129716;-74
2022/07/16 03:59:04;;;;;;;4.03;1.80;;;12.70;99.90;;;14.70;90.68;99149.38;4986200;28;129689;-72
2022/07/16 04:01:33;;;;;;;4.78;2.10;;;13.00;99.90;;;14.63;90.67;99146.47;5000429;28;122018;-72
2022/07/16 04:04:01;;;;;;;4.22;1.92;;;12.90;99.90;;;14.64;90.05;99153.50;5002001;28;122324;-74
2022/07/16 04:06:30;;;;;;;4.82;1.73;;;12.70;99.90;;;14.54;90.96;99156.72;5000275;28;130071;-72
2022/07/16 04:08:59;;;;;;;4.55;1.80;;;12.70;99.90;;;14.46;91.39;99152.16;5000707;28;129474;-73
2022/07/16 04:11:28;;;;;;;5.03;1.88;;;12.70;99.90;;;14.59;91.82;99152.94;4986456;28;119183;-73
2022/07/16 04:13:58;;;;;;;4.47;1.75;;;12.90;99.90;;;14.82;91.01;99145.00;5001440;28;119222;-73
2022/07/16 04:16:27;;;;;;;6.82;3.13;;;13.00;99.90;;;14.82;90.44;99153.22;4986115;28;130411;-73
2022/07/16 04:18:56;;;;;;;5.45;2.00;;;13.10;99.90;;;14.81;90.15;99151.63;4983274;28;129421;-73
2022/07/16 04:21:25;;;;;;;4.47;1.88;;;13.10;99.90;;;14.81;90.38;99157.09;5001592;28;119665;-71
2022/07/16 04:23:53;;;;;;;7.07;3.45;;;13.10;99.90;;;15.02;89.79;99157.69;4983014;28;119125;-74
2022/07/16 04:26:22;;;;;;;4.65;1.75;;;13.30;99.90;;;14.83;89.91;99157.53;4998821;28;129628;-71
2022/07/16 04:28:50;;;;;;;4.53;2.08;;;13.00;99.90;;;15.07;89.40;99164.84;5000822;28;129485;-71
2022/07/16 04:31:20;;;;;;;6.13;1.95;;;13.30;99.90;;;15.08;87.78;99166.41;4982772;28;119559;-73
2022/07/16 04:33:49;;;;;;;3.92;1.88;;;13.10;99.90;;;14.97;89.04;99155.19;5001011;28;119448;-73
2022/07/16 04:36:18;;;;;;;6.85;1.83;;;13.30;99.90;;;15.09;88.74;99154.34;5000634;28;129972;-73
2022/07/16 04:38:46;;;;;;;3.40;1.70;;;13.30;99.90;;;15.23;88.26;99156.66;5000202;28;130113;-71
2022/07/16 04:41:15;;;;;;;7.40;1.90;;;13.40;99.90;;;15.27;86.63;99157.56;5000470;28;119561;-72
2022/07/16 04:43:43;;;;;;;4.90;1.85;;;13.20;99.90;;;15.21;87.51;99153.50;4999872;28;119867;-71
2022/07/16 04:46:12;;;;;;;5.63;2.25;;;13.20;99.90;;;15.22;87.21;99155.88;4999267;28;129938;-71
2022/07/16 04:48:42;;;;;;;5.15;2.00;;;13.40;99.90;;;15.29;86.24;99160.72;5000567;28;129685;-71
2022/07/16 04:51:11;;;;;;;5.00;2.40;;;13.30;99.90;;;15.29;87.37;99149.78;4999676;28;121785;-72
2022/07/16 04:53:39;;;;;;;11.85;5.03;;;13.40;99.90;;;15.52;87.95;99152.72;5000726;28;122272;-71
2022/07/16 04:56:09;;;;;;;5.28;1.70;;;13.80;99.90;;;15.60;85.37;99154.47;4977347;28;129519;-70
2022/07/16 04:58:37;;;;;;;8.15;1.98;;;13.70;99.90;;;15.61;86.01;99155.25;5020194;28;130089;-72
2022/07/16 05:01:06;;;;;;;5.38;1.83;;;13.80;99.90;;;15.74;85.19;99158.72;5022792;28;119004;-71
2022/07/16 05:03:34;;;;;;;5.55;1.77;;;13.90;99.90;;;15.80;85.18;99157.31;5020590;28;119765;-71
2022/07/16 05:06:04;;;;;;;2.47;1.58;;;13.90;99.90;;;15.86;85.01;99160.56;5022153;28;129837;-74
2022/07/16 05:08:33;;;;;;;3.63;1.55;;;14.10;99.90;;;15.90;84.15;99161.44;5020650;28;129705;-72
2022/07/16 05:11:02;;;;;;;5.90;2.40;;;14.00;99.90;;;15.95;84.12;99161.16;5020600;28;119480;-71
2022/07/16 05:13:30;;;;;;;5.03;1.70;;;14.00;99.90;;;15.99;83.24;99164.78;5020644;28;119747;-70
2022/07/16 05:16:01;;;;;;;4.38;2.03;;;14.00;99.90;;;16.09;83.43;99158.75;4987273;28;129185;-71
2022/07/16 05:18:29;;;;;;;9.30;2.47;;;14.20;99.90;;;16.04;83.18;99150.81;5005261;28;128490;-73
2022/07/16 05:20:58;;;;;;;5.32;2.03;;;14.10;99.90;;;16.05;82.18;99157.91;5020327;28;119727;-73
2022/07/16 05:23:29;;;;;;;9.10;1.88;;;14.10;99.90;;;16.09;83.52;99144.28;5020323;28;120021;-74
2022/07/16 05:25:57;;;;;;;5.50;2.13;;;14.30;99.90;;;16.23;82.12;99157.50;5021645;28;129375;-71
2022/07/16 05:28:26;;;;;;;7.13;2.17;;;14.20;99.90;;;16.28;82.50;99154.47;5020094;28;129732;-74
2022/07/16 05:30:55;;;;;;;8.07;1.92;;;14.40;99.90;;;16.21;82.45;99148.84;5020228;28;119267;-75
2022/07/16 05:33:24;;;;;;;5.78;1.70;;;14.30;99.90;;;16.24;82.30;99153.63;5022738;28;119126;-73
2022/07/16 05:35:53;;;;;;;8.35;2.10;;;14.40;99.90;;;16.51;80.92;99157.31;5019721;28;130116;-73
2022/07/16 05:38:21;;;;;;;5.25;1.73;;;14.60;99.90;;;16.57;80.95;99149.59;5005016;28;128918;-74
2022/07/16 05:40:52;;;;;;;9.50;2.33;;;14.70;99.90;;;16.75;80.56;99156.25;5018784;28;121996;-72
2022/07/16 05:43:21;;;;;;;6.07;1.90;;;14.90;99.90;;;16.86;78.55;99161.94;5019817;28;121952;-73
2022/07/16 05:45:50;;;;;;;4.90;2.00;;;14.80;99.90;;;16.76;77.27;99166.03;5019525;28;129946;-72
2022/07/16 05:48:18;;;;;;;14.20;8.23;;;14.80;99.90;;;16.89;78.43;99172.16;5019449;28;130105;-71
2022/07/16 05:50:47;;;;;;;3.60;1.88;;;15.20;99.90;;;16.96;77.10;99171.53;5019947;28;119897;-73
2022/07/16 05:53:15;;;;;;;3.95;1.92;;;15.10;99.90;;;17.05;77.29;99163.88;5019996;28;119549;-74
2022/07/16 05:55:44;;;;;;;3.92;1.60;;;15.00;99.90;;;17.25;77.48;99170.13;5021193;28;130486;-71
2022/07/16 05:58:14;;;;;;;7.53;1.85;;;15.30;99.90;;;17.42;75.13;99166.09;5023750;28;129687;-73
2022/07/16 06:00:43;;;;;;;7.22;2.00;;;15.50;99.90;;;17.48;76.31;99170.09;5023425;28;119958;-73
2022/07/16 06:03:11;;;;;;;7.30;2.40;;;15.60;99.90;;;17.66;73.93;99164.94;5005413;28;119887;-72
2022/07/16 06:05:40;;;;;;;6.07;1.75;;;15.50;99.90;;;17.88;73.66;99171.56;5006975;28;129887;-70
2022/07/16 06:08:09;;;;;;;6.90;1.95;;;15.80;99.90;;;18.12;71.06;99166.81;5022781;28;129514;-75
2022/07/16 06:10:37;;;;;;;6.65;1.75;;;16.00;99.90;;;18.01;69.38;99158.44;5023639;28;119592;-73
2022/07/16 06:13:07;;;;;;;6.57;1.80;;;15.90;99.90;;;17.95;68.91;99160.72;5008808;28;118192;-71
2022/07/16 06:15:37;;;;;;;5.93;1.98;;;16.00;99.90;;;18.10;68.84;99166.41;5022954;28;129957;-72
2022/07/16 06:18:06;;;;;;;5.68;1.50;;;16.10;99.90;;;18.10;67.41;99166.41;5022957;28;130008;-72
2022/07/16 06:20:35;;;;;;;9.57;2.40;;;16.00;99.90;;;18.14;69.18;99157.06;5023096;28;120381;-71
2022/07/16 06:23:03;;;;;;;7.03;1.73;;;16.30;99.90;;;18.26;66.80;99158.81;5023138;28;119516;-69
2022/07/16 06:25:32;;;;;;;6.15;1.73;;;16.10;99.90;;;18.43;64.21;99156.66;5021531;28;129897;-71
2022/07/16 06:28:01;;;;;;;8.73;1.88;;;16.20;99.90;;;18.53;66.16;99150.50;5022300;28;129677;-72
2022/07/16 06:30:29;;;;;;;3.95;1.77;;;16.40;99.90;;;18.58;66.02;99158.41;5006730;28;121213;-73
2022/07/16 06:32:59;;;;;;;6.07;1.67;;;16.00;99.90;;;18.45;66.94;99149.63;5022942;28;122250;-73
2022/07/16 06:35:28;;;;;;;7.22;1.80;;;15.90;99.90;;;18.60;66.04;99156.09;5007544;28;129069;-71
2022/07/16 06:37:56;;;;;;;4.55;1.50;;;16.50;99.90;;;18.62;62.92;99158.47;5022601;28;130207;-71
2022/07/16 06:40:25;;;;;;;7.35;2.00;;;16.50;99.90;;;18.63;65.17;99160.84;5022943;28;119678;-72
2022/07/16 06:42:54;;;;;;;6.15;1.88;;;16.80;99.90;;;19.01;64.50;99167.19;5023021;28;120069;-72
2022/07/16 06:45:24;;;;;;;6.95;2.08;;;17.40;99.90;;;19.26;59.67;99163.09;5022271;28;129792;-74
2022/07/16 06:47:52;;;;;;;6.43;1.55;;;17.20;99.90;;;19.31;58.73;99160.03;5007947;28;128519;-72
2022/07/16 06:50:24;;;;;;;7.38;2.17;;;17.00;97.20;;;19.24;58.72;99168.22;5007611;28;118607;-76
2022/07/16 06:52:52;;;;;;;5.07;1.75;;;17.00;99.90;;;19.18;56.96;99173.25;5022962;28;119128;-75
2022/07/16 06:55:21;;;;;;;5.43;1.20;;;16.70;95.90;;;19.06;59.45;99170.75;5017817;28;130470;-74
2022/07/16 06:57:50;;;;;;;9.43;2.15;;;16.70;99.90;;;19.14;60.84;99159.47;4984131;28;129320;-75
2022/07/16 07:00:18;;;;;;;6.50;1.70;;;16.90;99.90;;;19.00;60.25;99165.59;4987577;28;119272;-73
2022/07/16 07:02:47;;;;;;;4.65;1.30;;;16.50;99.90;;;18.85;61.24;99156.44;5004154;28;118724;-73
2022/07/16 07:05:16;;;;;;;5.03;1.35;;;16.50;99.90;;;18.81;61.98;99160.28;5001470;28;129358;-76
2022/07/16 07:07:46;;;;;;;7.50;1.80;;;16.80;99.90;;;19.02;61.20;99160.50;4986557;28;128919;-73
2022/07/16 07:10:15;;;;;;;4.70;1.90;;;17.10;99.90;;;19.26;61.54;99154.84;5004329;28;118927;-73
2022/07/16 07:12:44;;;;;;;4.88;1.40;;;17.40;99.90;;;19.42;58.87;99171.16;5002077;28;119458;-73
2022/07/16 07:15:13;;;;;;;8.57;2.42;;;17.40;96.70;;;19.62;57.67;99158.75;5000031;28;130051;-74
2022/07/16 07:17:41;;;;;;;8.70;1.83;;;17.30;95.90;;;19.75;56.58;99162.75;5001565;28;129380;-73
2022/07/16 07:20:12;;;;;;;5.32;1.90;;;17.40;92.80;;;19.87;57.98;99158.16;4999391;28;122149;-75
2022/07/16 07:22:40;;;;;;;6.22;2.05;;;17.80;93.00;;;20.26;55.90;99149.38;4983714;28;122544;-75
2022/07/16 07:25:11;;;;;;;5.25;1.70;;;18.00;88.00;;;20.39;56.02;99156.09;4986487;28;129725;-72
2022/07/16 07:27:40;;;;;;;5.60;3.05;;;17.80;86.50;;;20.44;58.19;99153.00;4986815;28;128463;-72
2022/07/16 07:30:11;;;;;;;7.70;1.90;;;18.00;99.90;;;20.28;55.05;99155.28;4987260;28;119025;-76
2022/07/16 07:32:40;;;;;;;9.27;2.45;;;17.70;80.20;;;20.31;55.92;99160.00;5001144;28;119678;-74
2022/07/16 07:35:09;;;;;;;4.95;1.67;;;17.70;85.80;;;20.41;55.42;99152.97;4986865;28;129311;-71
2022/07/16 07:37:39;;;;;;;7.78;2.33;;;17.70;92.90;;;20.73;54.79;99146.84;5002452;28;129130;-74
2022/07/16 07:40:11;;;;;;;4.63;1.50;;;17.90;84.30;;;20.56;54.09;99149.09;5002215;28;119804;-74
2022/07/16 07:42:39;;;;;;;9.60;2.38;;;17.70;80.60;;;20.43;55.94;99151.41;5005177;28;118566;-75
2022/07/16 07:45:10;;;;;;;7.30;1.80;;;17.80;93.00;;;21.12;55.26;99146.94;5000362;28;130092;-74
2022/07/16 07:47:39;;;;;;;5.55;1.80;;;18.30;93.40;;;21.13;51.95;99143.00;5001543;28;129650;-73
2022/07/16 07:50:09;;;;;;;5.72;1.45;;;18.00;71.50;;;20.81;52.81;99143.69;5001858;28;119365;-77
2022/07/16 07:52:38;;;;;;;7.18;2.00;;;17.90;73.80;;;20.80;52.68;99142.13;5001351;28;119488;-73
2022/07/16 07:55:10;;;;;;;6.18;2.33;;;17.60;80.40;;;21.05;54.68;99151.66;5003500;28;130596;-72
2022/07/16 07:57:39;;;;;;;3.88;1.38;;;18.40;86.90;;;21.30;51.34;99148.91;5001691;28;129735;-71
2022/07/16 08:00:09;;;;;;;5.00;1.27;;;17.90;71.30;;;21.17;52.88;99143.00;4983728;28;121050;-73
2022/07/16 08:02:44;;;;;;;9.80;3.85;;;18.10;80.40;;;21.57;53.61;99148.59;5002081;28;119283;-75
2022/07/16 08:05:13;;;;;;;7.32;2.92;;;18.60;86.40;;;21.69;51.32;99148.97;5001141;28;129559;-71
2022/07/16 08:07:41;;;;;;;7.85;3.00;;;18.70;58.70;;;21.86;52.83;99152.13;5001350;28;129773;-72
2022/07/16 08:10:13;;;;;;;11.55;2.70;;;19.10;76.80;;;21.93;49.88;99159.63;5000091;28;122394;-72
2022/07/16 08:12:42;;;;;;;4.78;1.77;;;18.20;62.70;;;21.57;51.00;99154.91;5001472;28;121851;-70
2022/07/16 08:15:12;;;;;;;14.50;3.83;;;17.90;71.70;;;21.23;54.26;99174.53;4983260;28;129629;-71
2022/07/16 08:17:41;;;;;;;10.93;2.85;;;18.30;91.50;;;21.09;52.43;99158.75;5001064;28;129398;-73
2022/07/16 08:20:13;;;;;;;5.57;1.50;;;18.30;69.60;;;21.33;53.94;99150.91;5000428;28;119423;-75
2022/07/16 08:22:41;;;;;;;10.52;3.33;;;18.70;71.90;;;21.51;54.01;99140.69;4986452;28;118884;-73
2022/07/16 08:27:58;;;;;;;10.48;5.30;;;19.30;72.20;;;22.14;52.25;99165.09;5000986;28;129642;-72
2022/07/16 08:30:26;;;;;;;10.70;4.70;;;19.40;59.00;;;22.13;49.71;99152.47;5001124;28;119588;-73
2022/07/16 08:32:55;;;;;;;10.63;2.25;;;19.10;38.90;;;22.32;50.13;99144.97;5001096;28;119141;-72
2022/07/16 08:35:24;;;;;;;7.65;2.13;;;19.10;56.40;;;22.20;47.34;99146.13;4984529;28;129865;-74
2022/07/16 08:37:52;;;;;;;4.57;1.83;;;19.10;29.70;;;22.33;47.19;99141.00;4985945;28;128477;-74
2022/07/16 08:40:25;;;;;;;6.65;4.22;;;19.10;26.50;;;22.53;48.01;99139.34;4982808;28;119460;-75
2022/07/16 08:42:53;;;;;;;6.82;2.40;;;19.70;30.20;;;22.97;48.30;99140.72;4986167;28;119027;-73
2022/07/16 08:45:23;;;;;;;5.20;1.50;;;20.00;37.30;;;23.02;45.45;99145.03;4982701;28;129555;-73
2022/07/16 08:47:53;;;;;;;4.60;1.20;;;19.70;16.00;;;22.27;48.24;99148.88;4985492;28;129280;-73
2022/07/16 08:50:22;;;;;;;2.85;1.10;;;19.00;36.40;;;21.89;47.73;99143.84;5000804;28;120368;-74
2022/07/16 08:52:53;;;;;;;4.63;1.48;;;19.00;27.90;;;22.03;47.08;99144.97;4986309;28;118691;-73
2022/07/16 08:55:26;;;;;;;4.10;1.30;;;19.00;20.90;;;21.87;47.08;99146.19;4998797;28;129685;-72
2022/07/16 08:57:57;;;;;;;4.45;1.65;;;18.80;23.90;;;22.14;48.99;99136.69;4985432;28;129549;-74
2022/07/16 09:00:25;;;;;;;6.00;1.50;;;19.20;36.50;;;22.68;48.76;99142.06;4984381;28;121531;-75
2022/07/16 09:02:55;;;;;;;4.50;1.40;;;19.80;34.90;;;22.63;48.19;99134.97;5000620;28;121853;-74
2022/07/16 09:05:24;;;;;;;4.13;1.20;;;19.90;26.90;;;22.55;48.12;99134.19;5000053;28;129796;-77
2022/07/16 09:07:53;;;;;;;4.85;1.50;;;19.90;24.30;;;22.65;47.33;99129.03;4999600;28;130030;-74
2022/07/16 09:10:23;;;;;;;6.60;1.80;;;19.70;22.10;;;22.52;47.49;99129.47;4999943;28;119435;-74
2022/07/16 09:12:53;;;;;;;4.55;1.60;;;19.30;21.70;;;22.47;48.43;99132.66;4985424;28;118980;-72
2022/07/16 09:15:32;;;;;;;6.22;1.67;;;19.30;31.60;;;22.49;46.58;99133.03;4985199;28;128738;-73
2022/07/16 09:18:20;;;;;;;3.80;1.30;;;19.40;17.50;;;22.68;48.13;99131.00;4985797;28;129077;-73
2022/07/16 09:20:53;;;;;;;5.38;2.40;;;19.60;26.70;;;22.91;46.01;99134.03;4982628;28;119373;-74
2022/07/16 09:23:27;;;;;;;4.03;1.70;;;19.50;18.20;;;23.59;46.81;99127.25;4985895;28;118405;-75
2022/07/16 09:25:58;;;;;;;5.60;1.42;;;20.40;24.90;;;23.85;46.44;99119.50;4984449;28;129457;-75
2022/07/16 09:28:45;;;;;;;3.58;1.25;;;20.80;15.20;;;23.85;43.57;99122.28;4985717;28;128227;-75
2022/07/16 09:31:34;;;;;;;2.78;1.20;;;20.80;1.10;;;24.08;43.39;99118.13;4985560;28;118748;-78
2022/07/16 09:34:06;;;;;;;6.00;1.25;;;21.10;1.00;;;23.74;43.23;99121.59;4985781;28;118156;-76
2022/07/16 09:36:35;;;;;;;4.40;1.30;;;20.30;1.00;;;24.09;40.65;99120.47;4999475;28;129619;-74
2022/07/16 09:39:06;;;;;;;7.25;1.45;;;20.00;1.00;;;23.64;43.22;99112.19;4999729;28;129932;-74
2022/07/16 09:41:47;;;;;;;2.58;1.10;;;19.90;4.80;;;23.76;44.39;99108.09;4969205;28;118685;-75
2022/07/16 09:44:20;;;;;;;6.88;1.60;;;20.30;9.90;;;23.93;42.89;99112.69;4986035;28;118911;-75
2022/07/16 09:47:02;;;;;;;3.90;1.35;;;20.80;1.00;;;24.00;42.02;99111.84;4999510;28;129806;-75
2022/07/16 09:49:33;;;;;;;6.97;1.50;;;20.30;1.00;;;23.64;42.58;99107.41;4999760;28;129308;-77
2022/07/16 09:52:03;;;;;;;4.38;1.20;;;19.70;1.00;;;23.63;45.07;99107.81;4998943;28;121952;-75
2022/07/16 09:54:35;;;;;;;5.75;1.38;;;20.50;5.80;;;23.55;44.05;99109.09;4985417;28;121544;-75
2022/07/16 09:57:18;;;;;;;3.53;1.20;;;20.00;8.30;;;23.06;43.52;99107.06;5001189;28;129590;-76
2022/07/16 09:59:49;;;;;;;7.25;1.73;;;19.70;1.00;;;22.90;44.64;99110.31;5019993;28;129777;-76
2022/07/16 10:02:18;;;;;;;5.47;1.40;;;19.80;1.00;;;23.27;42.44;99111.69;5020070;28;119654;-71
2022/07/16 10:04:46;;;;;;;4.13;1.30;;;19.80;1.00;;;23.50;43.72;99105.56;5005793;28;118671;-75
2022/07/16 10:07:17;;;;;;;3.88;1.20;;;20.20;1.00;;;24.09;43.37;99103.03;5005193;28;129459;-76
2022/07/16 10:09:46;;;;;;;3.13;1.15;;;21.20;1.00;;;24.40;42.12;99107.44;5019962;28;129587;-74
2022/07/16 10:12:19;;;;;;;5.28;1.20;;;21.40;1.00;;;24.47;43.04;99119.63;5019991;28;120050;-74
2022/07/16 10:14:54;;;;;;;2.75;1.30;;;21.10;1.00;;;24.27;39.89;99109.16;5018378;28;120141;-75
2022/07/16 10:17:31;;;;;;;3.75;1.20;;;20.20;1.00;;;24.07;42.34;99105.44;5018271;28;130009;-77
2022/07/16 10:20:06;;;;;;;4.43;1.65;;;20.60;1.00;;;23.57;41.90;99113.00;5004586;28;128783;-72
2022/07/16 10:22:36;;;;;;;6.28;1.52;;;20.40;1.00;;;23.22;43.65;99112.13;5019811;28;119599;-73
2022/07/16 10:25:14;;;;;;;5.05;1.38;;;20.10;1.00;;;22.93;43.20;99108.72;5019763;28;119466;-75